Flugplatz Bexbach (EDRX)

Hier findest Du alle Informationen zum Flugplatz Bexbach (EDRX).

Informationen für Piloten zum Flugplatz Bexbach

Hier findest Du alle relevanten Informationen, die Du als Pilot benötigst, um Bexbach anzufliegen.

Flugplatz: Bexbach ICAO-Code: EDRX
Frequenz Turm: 123,05 Mhz GAFOR Gebiet: 44
Frequenz Ground: 123,05 Mhz Mogas: ja
Platzrunde: N 2000 ft Landegebühr: 0 €
Platzhöhe: - Sunrise: 05:24 Uhr UTC
Pisten: 06/24 - 550 m x 30 m, GRAS Sunset: 17:18 Uhr UTC

Flugwetter am Flugplatz Bexbach

Die METAR Information stammen aus EDDR (17.59 km entfernt).

METAR Code:
2022/08/08 06:20
EDDR 080620Z AUTO 06010KT CAVOK 18/05 Q1022 NOSIG

Temperatur: 8,6 °C Niederschlag: 0,9 mm (1h) Wind: 8,0 kt
Temperatur (min.): 7,8 °C Luftdruck: 998 hPa Windrichtung: 220 °
Temperatur (max.): 9,6 °C Luftfeuchtigkeit: 96 % Bewölkung: 6/8

Flugschulen am Flugplatz Bexbach

Am Flugplatz Bexbach gibt es leider keine Flugschule.

Benachbarte Flugplätze und Flugschulen

Es gibt 14 weitere Flugplätze in einem Umkreis von 50 km um den Flugplatz Bexbach.

Jetzt anmelden

Passwort vergessen

Umfrage Archiv

Sendet Ihr ADS-B und/oder FLARM?

Ja
83.8 %
Nein
16.2 %
Stimmen: 222 | Diskussion
Anzeige: Roland Aircraft
Statistik Alle Mitglieder

Aktuell sind 49 Besucher online, davon 1 Mitglied und 48 Gäste.


Mitglieder online:
Nordex 

Anzeige: ULPower Aero Engines Anzeige: Pocket FMS